sensor_id;sensor_type;location;lat;lon;timestamp;pressure;altitude;pressure_sealevel;temperature;humidity
43701;BME280;58809;47.984;7.964;2022-10-16T00:01:50;97080.19;;;13.62;100.00
43701;BME280;58809;47.984;7.964;2022-10-16T00:04:52;97071.22;;;13.63;100.00
43701;BME280;58809;47.984;7.964;2022-10-16T00:07:53;97082.47;;;13.65;100.00
43701;BME280;58809;47.984;7.964;2022-10-16T00:11:00;97073.88;;;13.63;100.00
43701;BME280;58809;47.984;7.964;2022-10-16T00:14:04;97076.31;;;13.72;100.00
43701;BME280;58809;47.984;7.964;2022-10-16T00:17:06;97069.38;;;13.71;100.00
43701;BME280;58809;47.984;7.964;2022-10-16T00:20:07;97080.81;;;13.64;100.00
43701;BME280;58809;47.984;7.964;2022-10-16T00:23:09;97080.81;;;13.64;100.00
43701;BME280;58809;47.984;7.964;2022-10-16T00:26:13;97082.47;;;13.65;100.00
43701;BME280;58809;47.984;7.964;2022-10-16T00:29:16;97083.69;;;13.70;100.00
43701;BME280;58809;47.984;7.964;2022-10-16T00:32:19;97082.47;;;13.72;100.00
43701;BME280;58809;47.984;7.964;2022-10-16T00:35:20;97080.41;;;13.67;100.00
43701;BME280;58809;47.984;7.964;2022-10-16T00:38:22;97091.84;;;13.68;100.00
43701;BME280;58809;47.984;7.964;2022-10-16T00:41:24;97093.50;;;13.69;100.00
43701;BME280;58809;47.984;7.964;2022-10-16T00:44:53;97091.84;;;13.68;100.00
43701;BME280;58809;47.984;7.964;2022-10-16T00:47:57;97089.00;;;13.63;100.00
43701;BME280;58809;47.984;7.964;2022-10-16T00:50:58;97086.94;;;13.58;100.00
43701;BME280;58809;47.984;7.964;2022-10-16T00:54:02;97089.41;;;13.60;100.00
43701;BME280;58809;47.984;7.964;2022-10-16T00:57:06;97087.56;;;13.60;100.00
43701;BME280;58809;47.984;7.964;2022-10-16T01:00:10;97098.63;;;13.57;100.00
43701;BME280;58809;47.984;7.964;2022-10-16T01:03:33;97099.63;;;13.56;100.00
43701;BME280;58809;47.984;7.964;2022-10-16T01:16:10;97120.50;;;13.59;100.00
43701;BME280;58809;47.984;7.964;2022-10-16T01:19:23;97120.09;;;13.56;100.00
43701;BME280;58809;47.984;7.964;2022-10-16T01:22:37;97113.75;;;13.50;100.00
43701;BME280;58809;47.984;7.964;2022-10-16T01:26:10;97117.22;;;13.51;100.00
43701;BME280;58809;47.984;7.964;2022-10-16T01:29:18;97106.16;;;13.47;100.00
43701;BME280;58809;47.984;7.964;2022-10-16T01:32:28;97113.09;;;13.48;100.00
43701;BME280;58809;47.984;7.964;2022-10-16T01:35:42;97116.78;;;13.47;100.00
43701;BME280;58809;47.984;7.964;2022-10-16T01:38:48;97121.28;;;13.46;100.00
43701;BME280;58809;47.984;7.964;2022-10-16T01:42:11;97126.00;;;13.44;100.00
43701;BME280;58809;47.984;7.964;2022-10-16T01:45:16;97119.84;;;13.37;100.00
43701;BME280;58809;47.984;7.964;2022-10-16T01:48:21;97113.06;;;13.35;100.00
43701;BME280;58809;47.984;7.964;2022-10-16T01:51:24;97101.44;;;13.36;100.00
43701;BME280;58809;47.984;7.964;2022-10-16T01:54:29;97103.66;;;13.39;100.00
43701;BME280;58809;47.984;7.964;2022-10-16T01:57:34;97099.81;;;13.41;100.00
43701;BME280;58809;47.984;7.964;2022-10-16T02:00:39;97107.78;;;13.41;100.00
43701;BME280;58809;47.984;7.964;2022-10-16T02:03:43;97092.84;;;13.40;100.00
43701;BME280;58809;47.984;7.964;2022-10-16T02:06:46;97091.03;;;13.41;100.00
43701;BME280;58809;47.984;7.964;2022-10-16T02:09:47;97096.34;;;13.41;100.00
43701;BME280;58809;47.984;7.964;2022-10-16T02:12:55;97106.75;;;13.42;100.00
43701;BME280;58809;47.984;7.964;2022-10-16T02:15:58;97106.97;;;13.41;100.00
43701;BME280;58809;47.984;7.964;2022-10-16T02:19:00;97108.19;;;13.38;100.00
43701;BME280;58809;47.984;7.964;2022-10-16T02:22:04;97108.56;;;13.35;100.00
43701;BME280;58809;47.984;7.964;2022-10-16T02:25:10;97115.72;;;13.35;100.00
43701;BME280;58809;47.984;7.964;2022-10-16T02:28:16;97110.84;;;13.32;100.00
43701;BME280;58809;47.984;7.964;2022-10-16T02:31:24;97110.97;;;13.23;100.00
43701;BME280;58809;47.984;7.964;2022-10-16T02:34:31;97113.41;;;13.18;100.00
43701;BME280;58809;47.984;7.964;2022-10-16T02:37:34;97111.75;;;13.10;100.00
43701;BME280;58809;47.984;7.964;2022-10-16T02:40:36;97112.16;;;13.14;100.00
43701;BME280;58809;47.984;7.964;2022-10-16T02:43:38;97120.16;;;13.14;100.00
43701;BME280;58809;47.984;7.964;2022-10-16T02:46:40;97126.88;;;13.17;100.00
43701;BME280;58809;47.984;7.964;2022-10-16T02:49:41;97123.22;;;13.18;100.00
43701;BME280;58809;47.984;7.964;2022-10-16T02:52:43;97118.72;;;13.18;100.00
43701;BME280;58809;47.984;7.964;2022-10-16T02:55:44;97120.16;;;13.14;100.00
43701;BME280;58809;47.984;7.964;2022-10-16T02:58:46;97123.41;;;13.16;100.00
43701;BME280;58809;47.984;7.964;2022-10-16T03:01:47;97129.75;;;13.22;100.00
43701;BME280;58809;47.984;7.964;2022-10-16T03:04:49;97125.69;;;13.19;100.00
43701;BME280;58809;47.984;7.964;2022-10-16T03:07:51;97126.53;;;13.26;100.00
43701;BME280;58809;47.984;7.964;2022-10-16T03:10:53;97137.56;;;13.30;100.00
43701;BME280;58809;47.984;7.964;2022-10-16T03:13:55;97130.06;;;13.34;100.00
43701;BME280;58809;47.984;7.964;2022-10-16T03:16:57;97135.16;;;13.35;100.00
43701;BME280;58809;47.984;7.964;2022-10-16T03:19:58;97129.84;;;13.35;100.00
43701;BME280;58809;47.984;7.964;2022-10-16T03:23:00;97131.69;;;13.35;100.00
43701;BME280;58809;47.984;7.964;2022-10-16T03:26:03;97123.69;;;13.35;100.00
43701;BME280;58809;47.984;7.964;2022-10-16T03:29:05;97125.16;;;13.37;100.00
43701;BME280;58809;47.984;7.964;2022-10-16T03:32:07;97122.50;;;13.37;100.00
43701;BME280;58809;47.984;7.964;2022-10-16T03:35:09;97115.53;;;13.36;100.00
43701;BME280;58809;47.984;7.964;2022-10-16T03:38:10;97120.84;;;13.36;100.00
43701;BME280;58809;47.984;7.964;2022-10-16T03:41:12;97126.97;;;13.37;100.00
43701;BME280;58809;47.984;7.964;2022-10-16T03:44:14;97118.81;;;13.38;100.00
43701;BME280;58809;47.984;7.964;2022-10-16T03:47:16;97118.63;;;13.40;100.00
43701;BME280;58809;47.984;7.964;2022-10-16T03:50:22;97117.81;;;13.39;100.00
43701;BME280;58809;47.984;7.964;2022-10-16T03:53:24;97128.66;;;13.44;100.00
43701;BME280;58809;47.984;7.964;2022-10-16T03:56:26;97133.97;;;13.44;100.00
43701;BME280;58809;47.984;7.964;2022-10-16T03:59:27;97125.16;;;13.44;100.00
43701;BME280;58809;47.984;7.964;2022-10-16T04:02:29;97132.13;;;13.45;100.00
43701;BME280;58809;47.984;7.964;2022-10-16T04:05:30;97123.53;;;13.43;100.00
43701;BME280;58809;47.984;7.964;2022-10-16T04:08:32;97119.66;;;13.45;100.00
43701;BME280;58809;47.984;7.964;2022-10-16T04:11:36;97130.28;;;13.45;100.00
43701;BME280;58809;47.984;7.964;2022-10-16T04:14:37;97125.78;;;13.46;100.00
43701;BME280;58809;47.984;7.964;2022-10-16T04:17:39;97130.09;;;13.47;100.00
43701;BME280;58809;47.984;7.964;2022-10-16T04:20:40;97142.34;;;13.48;100.00
43701;BME280;58809;47.984;7.964;2022-10-16T04:23:42;97135.59;;;13.45;100.00
43701;BME280;58809;47.984;7.964;2022-10-16T04:26:44;97140.28;;;13.43;100.00
43701;BME280;58809;47.984;7.964;2022-10-16T04:29:45;97145.00;;;13.48;100.00
43701;BME280;58809;47.984;7.964;2022-10-16T04:32:51;97145.84;;;13.48;100.00
43701;BME280;58809;47.984;7.964;2022-10-16T04:36:00;97150.94;;;13.50;100.00
43701;BME280;58809;47.984;7.964;2022-10-16T04:39:02;97142.56;;;13.53;100.00
43701;BME280;58809;47.984;7.964;2022-10-16T04:42:03;97143.59;;;13.52;100.00
43701;BME280;58809;47.984;7.964;2022-10-16T04:45:05;97146.06;;;13.54;100.00
43701;BME280;58809;47.984;7.964;2022-10-16T04:48:07;97145.22;;;13.53;100.00
43701;BME280;58809;47.984;7.964;2022-10-16T04:51:09;97137.25;;;13.53;100.00
43701;BME280;58809;47.984;7.964;2022-10-16T04:54:11;97147.88;;;13.53;100.00
43701;BME280;58809;47.984;7.964;2022-10-16T04:57:13;97144.59;;;13.51;100.00
43701;BME280;58809;47.984;7.964;2022-10-16T05:00:14;97139.69;;;13.48;100.00
43701;BME280;58809;47.984;7.964;2022-10-16T05:03:16;97139.06;;;13.46;100.00
43701;BME280;58809;47.984;7.964;2022-10-16T05:06:18;97142.97;;;13.50;100.00
43701;BME280;58809;47.984;7.964;2022-10-16T05:09:19;97140.09;;;13.52;100.00
43701;BME280;58809;47.984;7.964;2022-10-16T05:12:21;97141.56;;;13.54;100.00
43701;BME280;58809;47.984;7.964;2022-10-16T05:15:23;97139.06;;;13.46;100.00
43701;BME280;58809;47.984;7.964;2022-10-16T05:18:26;97159.53;;;13.59;100.00
43701;BME280;58809;47.984;7.964;2022-10-16T05:21:27;97159.53;;;13.59;100.00
43701;BME280;58809;47.984;7.964;2022-10-16T05:24:29;97169.75;;;13.55;100.00
43701;BME280;58809;47.984;7.964;2022-10-16T05:27:30;97171.59;;;13.55;100.00
43701;BME280;58809;47.984;7.964;2022-10-16T05:30:32;97169.13;;;13.53;100.00
43701;BME280;58809;47.984;7.964;2022-10-16T05:33:34;97188.59;;;13.54;100.00
43701;BME280;58809;47.984;7.964;2022-10-16T05:36:35;97172.22;;;13.50;100.00
43701;BME280;58809;47.984;7.964;2022-10-16T05:39:38;97176.88;;;13.48;100.00
43701;BME280;58809;47.984;7.964;2022-10-16T05:42:40;97178.31;;;13.44;100.00
43701;BME280;58809;47.984;7.964;2022-10-16T05:45:42;97174.22;;;13.48;100.00
43701;BME280;58809;47.984;7.964;2022-10-16T05:48:44;97183.84;;;13.49;100.00
43701;BME280;58809;47.984;7.964;2022-10-16T05:51:45;97178.94;;;13.46;100.00
43701;BME280;58809;47.984;7.964;2022-10-16T05:54:47;97184.47;;;13.51;100.00
43701;BME280;58809;47.984;7.964;2022-10-16T05:57:49;97171.59;;;13.55;100.00
43701;BME280;58809;47.984;7.964;2022-10-16T06:00:55;97167.94;;;13.56;100.00
43701;BME280;58809;47.984;7.964;2022-10-16T06:03:57;97181.66;;;13.59;100.00
43701;BME280;58809;47.984;7.964;2022-10-16T06:06:59;97177.75;;;13.62;100.00
43701;BME280;58809;47.984;7.964;2022-10-16T06:10:04;97188.81;;;13.65;100.00
43701;BME280;58809;47.984;7.964;2022-10-16T06:13:06;97188.22;;;13.70;100.00
43701;BME280;58809;47.984;7.964;2022-10-16T06:16:08;97184.13;;;13.74;100.00
43701;BME280;58809;47.984;7.964;2022-10-16T06:19:10;97182.13;;;13.83;100.00
43701;BME280;58809;47.984;7.964;2022-10-16T06:22:12;97192.31;;;13.86;100.00
43701;BME280;58809;47.984;7.964;2022-10-16T06:25:13;97199.09;;;13.89;100.00
43701;BME280;58809;47.984;7.964;2022-10-16T06:28:15;97201.97;;;13.87;100.00
43701;BME280;58809;47.984;7.964;2022-10-16T06:31:17;97210.56;;;13.89;100.00
43701;BME280;58809;47.984;7.964;2022-10-16T06:34:19;97227.75;;;13.93;100.00
43701;BME280;58809;47.984;7.964;2022-10-16T06:37:20;97235.31;;;13.96;100.00
43701;BME280;58809;47.984;7.964;2022-10-16T06:40:23;97233.28;;;13.98;100.00
43701;BME280;58809;47.984;7.964;2022-10-16T06:43:25;97230.84;;;14.03;100.00
43701;BME280;58809;47.984;7.964;2022-10-16T06:46:27;97242.94;;;14.13;100.00
43701;BME280;58809;47.984;7.964;2022-10-16T06:49:29;97251.53;;;14.21;100.00
43701;BME280;58809;47.984;7.964;2022-10-16T06:52:30;97247.44;;;14.25;100.00
43701;BME280;58809;47.984;7.964;2022-10-16T06:55:32;97241.94;;;14.27;100.00
43701;BME280;58809;47.984;7.964;2022-10-16T06:58:33;97231.69;;;14.31;100.00
43701;BME280;58809;47.984;7.964;2022-10-16T07:01:35;97249.28;;;14.32;100.00
43701;BME280;58809;47.984;7.964;2022-10-16T07:04:36;97259.34;;;14.36;100.00
43701;BME280;58809;47.984;7.964;2022-10-16T07:07:38;97274.88;;;14.39;100.00
43701;BME280;58809;47.984;7.964;2022-10-16T07:10:40;97264.66;;;14.36;100.00
43701;BME280;58809;47.984;7.964;2022-10-16T07:13:42;97266.91;;;14.46;100.00
43701;BME280;58809;47.984;7.964;2022-10-16T07:16:44;97283.50;;;14.55;100.00
43701;BME280;58809;47.984;7.964;2022-10-16T07:19:46;97293.59;;;14.66;100.00
43701;BME280;58809;47.984;7.964;2022-10-16T07:22:47;97295.00;;;14.75;100.00
43701;BME280;58809;47.984;7.964;2022-10-16T07:25:53;97295.00;;;14.75;100.00
43701;BME280;58809;47.984;7.964;2022-10-16T07:28:56;97298.09;;;14.79;100.00
43701;BME280;58809;47.984;7.964;2022-10-16T07:31:58;97297.06;;;14.87;100.00
43701;BME280;58809;47.984;7.964;2022-10-16T07:35:00;97308.75;;;14.86;100.00
43701;BME280;58809;47.984;7.964;2022-10-16T07:38:01;97304.84;;;14.95;100.00
43701;BME280;58809;47.984;7.964;2022-10-16T07:41:05;97305.47;;;14.97;100.00
43701;BME280;58809;47.984;7.964;2022-10-16T07:44:07;97324.69;;;15.12;100.00
43701;BME280;58809;47.984;7.964;2022-10-16T07:47:09;97327.53;;;15.31;100.00
43701;BME280;58809;47.984;7.964;2022-10-16T07:50:10;97328.53;;;15.50;100.00
43701;BME280;58809;47.984;7.964;2022-10-16T07:53:12;97324.22;;;15.55;100.00
43701;BME280;58809;47.984;7.964;2022-10-16T07:56:15;97323.16;;;15.63;100.00
43701;BME280;58809;47.984;7.964;2022-10-16T07:59:16;97342.81;;;15.82;100.00
43701;BME280;58809;47.984;7.964;2022-10-16T08:02:18;97342.34;;;15.98;100.00
43701;BME280;58809;47.984;7.964;2022-10-16T08:05:19;97349.44;;;16.18;100.00
43701;BME280;58809;47.984;7.964;2022-10-16T08:08:21;97339.50;;;16.32;100.00
43701;BME280;58809;47.984;7.964;2022-10-16T08:11:23;97344.19;;;16.43;100.00
43701;BME280;58809;47.984;7.964;2022-10-16T08:14:24;97352.31;;;16.55;100.00
43701;BME280;58809;47.984;7.964;2022-10-16T08:17:26;97350.41;;;16.62;100.00
43701;BME280;58809;47.984;7.964;2022-10-16T08:20:30;97348.31;;;16.71;100.00
43701;BME280;58809;47.984;7.964;2022-10-16T08:23:32;97356.13;;;16.72;100.00
43701;BME280;58809;47.984;7.964;2022-10-16T08:26:33;97352.16;;;16.82;100.00
43701;BME280;58809;47.984;7.964;2022-10-16T08:29:35;97363.94;;;16.99;100.00
43701;BME280;58809;47.984;7.964;2022-10-16T08:32:37;97360.81;;;17.09;100.00
43701;BME280;58809;47.984;7.964;2022-10-16T08:35:39;97369.81;;;17.15;100.00
43701;BME280;58809;47.984;7.964;2022-10-16T08:38:41;97370.81;;;17.13;100.00
43701;BME280;58809;47.984;7.964;2022-10-16T08:48:17;97356.31;;;17.46;100.00
43701;BME280;58809;47.984;7.964;2022-10-16T08:51:23;97355.91;;;17.49;100.00
43701;BME280;58809;47.984;7.964;2022-10-16T08:54:35;97354.84;;;17.50;100.00
43701;BME280;58809;47.984;7.964;2022-10-16T08:57:41;97356.94;;;17.48;100.00
43701;BME280;58809;47.984;7.964;2022-10-16T09:00:46;97357.81;;;17.42;100.00
43701;BME280;58809;47.984;7.964;2022-10-16T09:04:14;97355.88;;;17.31;100.00
43701;BME280;58809;47.984;7.964;2022-10-16T09:07:34;97358.94;;;17.35;100.00
43701;BME280;58809;47.984;7.964;2022-10-16T09:10:52;97365.47;;;17.57;100.00
43701;BME280;58809;47.984;7.964;2022-10-16T09:14:15;97364.94;;;17.92;100.00
43701;BME280;58809;47.984;7.964;2022-10-16T09:17:38;97367.16;;;18.14;100.00
43701;BME280;58809;47.984;7.964;2022-10-16T09:20:51;97364.31;;;18.39;100.00
43701;BME280;58809;47.984;7.964;2022-10-16T09:23:57;97359.84;;;18.51;100.00
43701;BME280;58809;47.984;7.964;2022-10-16T09:27:00;97380.63;;;18.67;100.00
43701;BME280;58809;47.984;7.964;2022-10-16T09:30:11;97379.69;;;18.74;100.00
43701;BME280;58809;47.984;7.964;2022-10-16T09:33:13;97395.34;;;18.77;100.00
43701;BME280;58809;47.984;7.964;2022-10-16T09:36:16;97393.94;;;18.74;100.00
43701;BME280;58809;47.984;7.964;2022-10-16T09:39:18;97383.91;;;19.00;100.00
43701;BME280;58809;47.984;7.964;2022-10-16T09:42:22;97384.75;;;19.48;100.00
43701;BME280;58809;47.984;7.964;2022-10-16T09:45:26;97382.97;;;19.65;100.00
43701;BME280;58809;47.984;7.964;2022-10-16T09:48:37;97387.06;;;19.68;100.00
43701;BME280;58809;47.984;7.964;2022-10-16T09:51:39;97386.16;;;19.62;100.00
43701;BME280;58809;47.984;7.964;2022-10-16T09:54:53;97384.28;;;19.86;100.00
43701;BME280;58809;47.984;7.964;2022-10-16T09:57:56;97391.44;;;20.09;96.55
43701;BME280;58809;47.984;7.964;2022-10-16T10:00:57;97391.09;;;20.17;94.33
43701;BME280;58809;47.984;7.964;2022-10-16T10:03:59;97387.66;;;20.34;91.94
43701;BME280;58809;47.984;7.964;2022-10-16T10:07:02;97389.06;;;20.65;88.68
43701;BME280;58809;47.984;7.964;2022-10-16T10:10:05;97399.41;;;21.02;85.89
43701;BME280;58809;47.984;7.964;2022-10-16T10:13:22;97396.31;;;21.27;82.26
43701;BME280;58809;47.984;7.964;2022-10-16T10:16:24;97396.97;;;21.51;80.09
43701;BME280;58809;47.984;7.964;2022-10-16T10:19:26;97386.25;;;21.73;77.71
43701;BME280;58809;47.984;7.964;2022-10-16T10:22:41;97388.72;;;21.97;76.47
43701;BME280;58809;47.984;7.964;2022-10-16T10:29:16;97387.34;;;22.17;75.71
43701;BME280;58809;47.984;7.964;2022-10-16T10:45:28;97380.47;;;22.48;68.53
43701;BME280;58809;47.984;7.964;2022-10-16T11:01:50;97365.66;;;22.78;66.22
43701;BME280;58809;47.984;7.964;2022-10-16T11:05:10;97367.25;;;23.06;64.78
43701;BME280;58809;47.984;7.964;2022-10-16T11:08:33;97361.75;;;23.23;63.13
43701;BME280;58809;47.984;7.964;2022-10-16T11:11:50;97358.88;;;23.40;61.42
43701;BME280;58809;47.984;7.964;2022-10-16T11:15:11;97360.69;;;23.67;59.31
43701;BME280;58809;47.984;7.964;2022-10-16T11:18:21;97361.22;;;23.74;56.89
43701;BME280;58809;47.984;7.964;2022-10-16T11:21:24;97359.47;;;23.47;55.60
43701;BME280;58809;47.984;7.964;2022-10-16T11:24:40;97357.53;;;23.37;55.49
43701;BME280;58809;47.984;7.964;2022-10-16T11:31:22;97357.41;;;23.59;54.53
43701;BME280;58809;47.984;7.964;2022-10-16T11:37:41;97340.53;;;23.85;53.58
43701;BME280;58809;47.984;7.964;2022-10-16T11:40:47;97338.91;;;23.83;53.15
43701;BME280;58809;47.984;7.964;2022-10-16T11:47:40;97335.91;;;23.80;56.35
43701;BME280;58809;47.984;7.964;2022-10-16T11:54:28;97344.34;;;23.94;51.10
43701;BME280;58809;47.984;7.964;2022-10-16T11:57:39;97337.03;;;23.89;51.91
43701;BME280;58809;47.984;7.964;2022-10-16T12:00:52;97347.34;;;23.92;51.63
43701;BME280;58809;47.984;7.964;2022-10-16T12:04:21;97344.22;;;23.73;50.19
43701;BME280;58809;47.984;7.964;2022-10-16T12:07:35;97340.72;;;23.73;50.48
43701;BME280;58809;47.984;7.964;2022-10-16T12:10:40;97348.84;;;23.78;50.48
43701;BME280;58809;47.984;7.964;2022-10-16T12:13:43;97346.22;;;23.88;49.68
43701;BME280;58809;47.984;7.964;2022-10-16T12:16:51;97336.53;;;23.92;48.86
43701;BME280;58809;47.984;7.964;2022-10-16T12:19:58;97341.16;;;24.02;48.72
43701;BME280;58809;47.984;7.964;2022-10-16T12:23:03;97342.81;;;24.13;48.20
43701;BME280;58809;47.984;7.964;2022-10-16T12:26:08;97334.19;;;24.16;48.05
43701;BME280;58809;47.984;7.964;2022-10-16T12:32:35;97334.47;;;24.25;47.53
43701;BME280;58809;47.984;7.964;2022-10-16T12:35:54;97331.22;;;24.18;47.79
43701;BME280;58809;47.984;7.964;2022-10-16T12:38:57;97322.78;;;24.09;48.16
43701;BME280;58809;47.984;7.964;2022-10-16T12:42:01;97328.47;;;24.08;48.13
43701;BME280;58809;47.984;7.964;2022-10-16T12:48:24;97322.25;;;24.07;48.95
43701;BME280;58809;47.984;7.964;2022-10-16T12:51:43;97314.94;;;24.02;49.02
43701;BME280;58809;47.984;7.964;2022-10-16T12:54:44;97319.47;;;23.92;49.43
43701;BME280;58809;47.984;7.964;2022-10-16T12:58:13;97308.50;;;23.61;50.30
43701;BME280;58809;47.984;7.964;2022-10-16T13:01:40;97307.19;;;23.69;50.04
43701;BME280;58809;47.984;7.964;2022-10-16T13:11:46;97312.59;;;23.69;49.99
43701;BME280;58809;47.984;7.964;2022-10-16T13:15:22;97310.13;;;23.62;49.80
43701;BME280;58809;47.984;7.964;2022-10-16T13:18:42;97304.22;;;23.65;50.73
43701;BME280;58809;47.984;7.964;2022-10-16T13:28:39;97313.44;;;23.74;50.50
43701;BME280;58809;47.984;7.964;2022-10-16T13:31:44;97298.56;;;23.72;50.58
43701;BME280;58809;47.984;7.964;2022-10-16T13:35:00;97310.41;;;23.66;50.87
43701;BME280;58809;47.984;7.964;2022-10-16T13:38:23;97306.88;;;23.60;50.52
43701;BME280;58809;47.984;7.964;2022-10-16T13:41:25;97307.47;;;23.67;50.60
43701;BME280;58809;47.984;7.964;2022-10-16T13:44:35;97305.63;;;23.78;50.26
43701;BME280;58809;47.984;7.964;2022-10-16T13:47:38;97296.13;;;23.75;50.62
43701;BME280;58809;47.984;7.964;2022-10-16T13:50:39;97308.66;;;23.81;50.75
43701;BME280;58809;47.984;7.964;2022-10-16T13:53:42;97303.38;;;23.59;51.04
43701;BME280;58809;47.984;7.964;2022-10-16T13:56:44;97299.63;;;23.66;51.79
43701;BME280;58809;47.984;7.964;2022-10-16T13:59:45;97303.50;;;23.80;51.79
43701;BME280;58809;47.984;7.964;2022-10-16T14:02:55;97313.63;;;23.62;51.36
43701;BME280;58809;47.984;7.964;2022-10-16T14:06:01;97313.13;;;23.66;51.76
43701;BME280;58809;47.984;7.964;2022-10-16T14:09:23;97312.19;;;23.87;51.59
43701;BME280;58809;47.984;7.964;2022-10-16T14:12:25;97309.78;;;24.01;51.18
43701;BME280;58809;47.984;7.964;2022-10-16T14:15:30;97307.06;;;23.91;52.03
43701;BME280;58809;47.984;7.964;2022-10-16T14:18:32;97317.38;;;24.04;50.94
43701;BME280;58809;47.984;7.964;2022-10-16T14:21:37;97310.63;;;24.01;51.63
43701;BME280;58809;47.984;7.964;2022-10-16T14:24:38;97301.75;;;24.21;51.44
43701;BME280;58809;47.984;7.964;2022-10-16T14:27:40;97307.75;;;24.54;50.46
43701;BME280;58809;47.984;7.964;2022-10-16T14:30:53;97313.75;;;24.77;50.77
43701;BME280;58809;47.984;7.964;2022-10-16T14:33:55;97318.81;;;26.36;47.41
43701;BME280;58809;47.984;7.964;2022-10-16T14:36:59;97316.44;;;27.62;44.17
43701;BME280;58809;47.984;7.964;2022-10-16T14:40:04;97314.66;;;28.00;43.29
43701;BME280;58809;47.984;7.964;2022-10-16T14:43:05;97316.84;;;27.21;44.29
43701;BME280;58809;47.984;7.964;2022-10-16T14:46:18;97312.66;;;26.20;46.28
43701;BME280;58809;47.984;7.964;2022-10-16T14:49:23;97308.59;;;25.32;48.68
43701;BME280;58809;47.984;7.964;2022-10-16T14:52:24;97311.88;;;24.93;51.30
43701;BME280;58809;47.984;7.964;2022-10-16T14:55:26;97317.81;;;24.64;52.15
43701;BME280;58809;47.984;7.964;2022-10-16T14:58:28;97322.94;;;24.55;52.03
43701;BME280;58809;47.984;7.964;2022-10-16T15:01:29;97317.00;;;24.58;53.51
43701;BME280;58809;47.984;7.964;2022-10-16T15:04:31;97314.78;;;24.40;56.03
43701;BME280;58809;47.984;7.964;2022-10-16T15:07:32;97316.56;;;24.14;58.48
43701;BME280;58809;47.984;7.964;2022-10-16T15:10:39;97323.56;;;24.05;60.00
43701;BME280;58809;47.984;7.964;2022-10-16T15:13:44;97326.34;;;24.20;60.29
43701;BME280;58809;47.984;7.964;2022-10-16T15:16:46;97312.84;;;24.25;60.00
43701;BME280;58809;47.984;7.964;2022-10-16T15:19:47;97331.47;;;24.27;59.90
43701;BME280;58809;47.984;7.964;2022-10-16T15:22:49;97330.91;;;24.19;61.55
43701;BME280;58809;47.984;7.964;2022-10-16T15:25:53;97325.25;;;24.11;62.49
43701;BME280;58809;47.984;7.964;2022-10-16T15:28:57;97330.00;;;23.83;63.11
43701;BME280;58809;47.984;7.964;2022-10-16T15:31:59;97332.97;;;23.81;62.74
43701;BME280;58809;47.984;7.964;2022-10-16T15:35:08;97323.78;;;23.88;62.76
43701;BME280;58809;47.984;7.964;2022-10-16T15:38:14;97330.63;;;24.16;62.79
43701;BME280;58809;47.984;7.964;2022-10-16T15:41:16;97328.00;;;24.31;61.99
43701;BME280;58809;47.984;7.964;2022-10-16T15:44:18;97332.91;;;23.76;63.29
43701;BME280;58809;47.984;7.964;2022-10-16T15:47:20;97336.47;;;23.39;64.23
43701;BME280;58809;47.984;7.964;2022-10-16T15:50:21;97339.72;;;23.04;65.63
43701;BME280;58809;47.984;7.964;2022-10-16T15:53:23;97351.81;;;22.69;66.80
43701;BME280;58809;47.984;7.964;2022-10-16T15:56:25;97351.56;;;22.43;68.17
43701;BME280;58809;47.984;7.964;2022-10-16T15:59:29;97351.75;;;22.15;69.87
43701;BME280;58809;47.984;7.964;2022-10-16T16:02:31;97361.44;;;21.71;72.64
43701;BME280;58809;47.984;7.964;2022-10-16T16:05:33;97362.72;;;21.47;75.21
43701;BME280;58809;47.984;7.964;2022-10-16T16:08:36;97364.25;;;21.26;76.47
43701;BME280;58809;47.984;7.964;2022-10-16T16:11:38;97364.28;;;21.09;78.25
43701;BME280;58809;47.984;7.964;2022-10-16T16:14:40;97368.25;;;20.89;79.86
43701;BME280;58809;47.984;7.964;2022-10-16T16:17:42;97360.53;;;20.64;82.27
43701;BME280;58809;47.984;7.964;2022-10-16T16:20:45;97367.63;;;20.42;84.97
43701;BME280;58809;47.984;7.964;2022-10-16T16:23:46;97374.50;;;20.21;86.39
43701;BME280;58809;47.984;7.964;2022-10-16T16:26:48;97365.44;;;19.98;87.55
43701;BME280;58809;47.984;7.964;2022-10-16T16:29:50;97360.38;;;19.73;89.46
43701;BME280;58809;47.984;7.964;2022-10-16T16:32:51;97373.56;;;19.51;91.54
43701;BME280;58809;47.984;7.964;2022-10-16T16:36:01;97371.56;;;19.22;94.15
43701;BME280;58809;47.984;7.964;2022-10-16T16:39:03;97387.97;;;19.02;95.88
43701;BME280;58809;47.984;7.964;2022-10-16T16:42:05;97395.34;;;18.77;97.27
43701;BME280;58809;47.984;7.964;2022-10-16T16:45:08;97389.13;;;18.64;98.00
43701;BME280;58809;47.984;7.964;2022-10-16T16:48:10;97400.25;;;18.50;98.93
43701;BME280;58809;47.984;7.964;2022-10-16T16:51:14;97402.44;;;18.41;100.00
43701;BME280;58809;47.984;7.964;2022-10-16T16:54:17;97400.13;;;18.26;100.00
43701;BME280;58809;47.984;7.964;2022-10-16T16:57:19;97404.16;;;18.17;100.00
43701;BME280;58809;47.984;7.964;2022-10-16T17:00:21;97414.66;;;18.00;100.00
43701;BME280;58809;47.984;7.964;2022-10-16T17:03:22;97411.72;;;17.89;100.00
43701;BME280;58809;47.984;7.964;2022-10-16T17:06:26;97412.84;;;17.75;100.00
43701;BME280;58809;47.984;7.964;2022-10-16T17:09:28;97420.94;;;17.68;100.00
43701;BME280;58809;47.984;7.964;2022-10-16T17:12:30;97432.16;;;17.59;100.00
43701;BME280;58809;47.984;7.964;2022-10-16T17:15:31;97429.53;;;17.52;100.00
43701;BME280;58809;47.984;7.964;2022-10-16T17:18:33;97438.16;;;17.29;100.00
43701;BME280;58809;47.984;7.964;2022-10-16T17:21:35;97442.69;;;17.28;100.00
43701;BME280;58809;47.984;7.964;2022-10-16T17:24:37;97442.75;;;17.22;100.00
43701;BME280;58809;47.984;7.964;2022-10-16T17:27:39;97446.28;;;17.16;100.00
43701;BME280;58809;47.984;7.964;2022-10-16T17:30:42;97445.50;;;17.08;100.00